createdAt,value
2019-04-29T00:00:34.951Z,84.50
2019-04-29T00:03:02.549Z,85.20
2019-04-29T00:05:30.148Z,85.70
2019-04-29T00:07:57.684Z,84.80
2019-04-29T00:10:25.219Z,85.80
2019-04-29T00:12:52.772Z,83.00
2019-04-29T00:15:31.039Z,83.40
2019-04-29T00:18:00.229Z,84.10
2019-04-29T00:20:32.464Z,83.50
2019-04-29T00:23:00.012Z,83.40
2019-04-29T00:25:27.550Z,83.90
2019-04-29T00:27:55.116Z,82.70
2019-04-29T00:30:22.721Z,80.90
2019-04-29T00:32:50.265Z,82.80
2019-04-29T00:35:17.819Z,83.40
2019-04-29T00:37:49.677Z,84.60
2019-04-29T00:40:18.852Z,84.10
2019-04-29T00:42:48.020Z,84.90
2019-04-29T00:45:15.661Z,83.90
2019-04-29T00:47:43.192Z,83.40
2019-04-29T00:50:10.808Z,83.90
2019-04-29T00:52:38.352Z,84.80
2019-04-29T00:55:07.544Z,85.40
2019-04-29T00:57:35.097Z,85.50
2019-04-29T01:00:03.081Z,85.20
2019-04-29T01:02:30.685Z,83.40
2019-04-29T01:04:58.231Z,83.10
2019-04-29T01:07:25.771Z,83.00
2019-04-29T01:09:53.320Z,82.90
2019-04-29T01:12:20.852Z,82.80
2019-04-29T01:14:48.427Z,83.70
2019-04-29T01:17:15.965Z,84.10
2019-04-29T01:19:43.511Z,83.20
2019-04-29T01:22:11.054Z,83.90
2019-04-29T01:24:38.676Z,84.50
2019-04-29T01:27:16.988Z,85.10
2019-04-29T01:29:44.541Z,85.90
2019-04-29T01:32:12.088Z,85.30
2019-04-29T01:34:41.272Z,83.60
2019-04-29T01:37:08.808Z,83.50
2019-04-29T01:39:44.173Z,83.40
2019-04-29T01:42:13.360Z,82.20
2019-04-29T01:44:40.948Z,82.80
2019-04-29T01:47:08.806Z,82.90
2019-04-29T01:49:36.389Z,83.40
2019-04-29T01:52:03.910Z,84.60
2019-04-29T01:54:31.468Z,84.70
2019-04-29T01:56:58.979Z,85.70
2019-04-29T01:59:26.620Z,85.10
2019-04-29T02:01:54.168Z,85.00
2019-04-29T02:04:21.708Z,85.20
2019-04-29T02:06:49.260Z,84.70
2019-04-29T02:09:18.415Z,85.20
2019-04-29T02:11:45.952Z,85.90
2019-04-29T02:14:13.492Z,84.70
2019-04-29T02:17:00.432Z,84.20
2019-04-29T02:19:28.256Z,83.60
2019-04-29T02:22:09.639Z,83.70
2019-04-29T02:24:38.996Z,82.90
2019-04-29T02:27:06.534Z,83.30
2019-04-29T02:29:34.372Z,83.00
2019-04-29T02:32:01.901Z,83.20
2019-04-29T02:34:29.549Z,82.60
2019-04-29T02:36:58.470Z,81.80
2019-04-29T02:39:27.659Z,81.80
2019-04-29T02:42:13.429Z,82.90
2019-04-29T02:44:40.984Z,81.90
2019-04-29T02:47:08.504Z,82.60
2019-04-29T02:49:36.051Z,82.60
2019-04-29T02:52:03.600Z,82.90
2019-04-29T02:54:31.206Z,83.50
2019-04-29T02:57:03.547Z,82.80
2019-04-29T02:59:32.808Z,82.90
2019-04-29T03:02:01.976Z,83.10
2019-04-29T03:04:31.160Z,83.20
2019-04-29T03:06:58.700Z,83.00
2019-04-29T03:09:26.277Z,83.20
2019-04-29T03:11:53.809Z,82.50
2019-04-29T03:14:21.357Z,83.10
2019-04-29T03:16:48.878Z,83.00
2019-04-29T03:19:18.065Z,83.50
2019-04-29T03:21:47.249Z,83.20
2019-04-29T03:24:14.813Z,82.10
2019-04-29T03:26:42.345Z,83.00
2019-04-29T03:29:11.538Z,82.30
2019-04-29T03:31:40.103Z,81.70
2019-04-29T03:34:07.782Z,82.70
2019-04-29T03:36:35.308Z,83.50
2019-04-29T03:39:02.925Z,83.60
2019-04-29T03:41:30.456Z,83.70
2019-04-29T03:43:58.005Z,83.50
2019-04-29T03:46:25.885Z,83.60
2019-04-29T03:48:53.753Z,83.40
2019-04-29T03:51:21.297Z,83.60
2019-04-29T03:53:48.831Z,83.00
2019-04-29T03:56:16.742Z,83.50
2019-04-29T03:58:44.269Z,83.50
2019-04-29T04:01:16.100Z,83.60
2019-04-29T04:03:48.186Z,82.80
2019-04-29T04:06:17.369Z,82.80
2019-04-29T04:09:04.746Z,82.70
2019-04-29T04:11:18.753Z,82.70
2019-04-29T04:13:46.362Z,82.80
2019-04-29T04:16:15.541Z,84.80
2019-04-29T04:18:43.133Z,85.40
2019-04-29T04:21:10.692Z,85.10
2019-04-29T04:23:38.232Z,84.40
2019-04-29T04:26:06.086Z,84.50
2019-04-29T04:28:33.613Z,85.90
2019-04-29T04:31:01.163Z,87.50
2019-04-29T04:33:28.769Z,87.10
2019-04-29T04:35:56.313Z,86.80
2019-04-29T04:38:23.842Z,87.30
2019-04-29T04:40:53.052Z,87.50
2019-04-29T04:43:20.584Z,87.80
2019-04-29T04:45:48.479Z,87.00
2019-04-29T04:48:16.006Z,86.80
2019-04-29T04:50:43.872Z,86.90
2019-04-29T04:53:11.412Z,86.40
2019-04-29T04:55:40.646Z,87.00
2019-04-29T04:58:08.179Z,86.20
2019-04-29T05:00:36.893Z,87.40
2019-04-29T05:03:04.416Z,88.90
2019-04-29T05:05:31.977Z,88.40
2019-04-29T05:07:59.508Z,87.70
2019-04-29T05:10:27.340Z,87.70
2019-04-29T05:12:54.885Z,87.60
2019-04-29T05:15:22.417Z,88.10
2019-04-29T05:17:52.999Z,88.00
2019-04-29T05:20:19.241Z,88.30
2019-04-29T05:22:58.772Z,89.00
2019-04-29T05:25:26.768Z,90.20
2019-04-29T05:27:54.322Z,91.10
2019-04-29T05:30:21.865Z,91.40
2019-04-29T05:32:49.724Z,90.90
2019-04-29T05:35:33.887Z,90.10
2019-04-29T05:38:05.493Z,90.50
2019-04-29T05:40:40.171Z,90.40
2019-04-29T05:43:09.353Z,90.70
2019-04-29T05:45:46.251Z,90.70
2019-04-29T05:48:12.620Z,90.90
2019-04-29T05:50:47.578Z,90.90
2019-04-29T05:53:18.700Z,91.00
2019-04-29T05:55:46.320Z,90.20
2019-04-29T05:58:13.853Z,89.00
2019-04-29T06:00:43.039Z,87.90
2019-04-29T06:03:10.560Z,88.30
2019-04-29T06:05:38.218Z,90.40
2019-04-29T06:08:05.752Z,90.20
2019-04-29T06:10:33.594Z,89.20
2019-04-29T06:13:01.462Z,89.70
2019-04-29T06:15:29.324Z,90.40
2019-04-29T06:17:56.860Z,90.10
2019-04-29T06:20:24.399Z,90.30
2019-04-29T06:22:51.962Z,90.70
2019-04-29T06:25:19.568Z,90.00
2019-04-29T06:27:47.183Z,90.10
2019-04-29T06:30:14.959Z,91.10
2019-04-29T06:32:42.511Z,92.00
2019-04-29T06:35:10.526Z,91.80
2019-04-29T06:37:39.339Z,90.70
2019-04-29T06:40:06.906Z,90.50
2019-04-29T06:42:34.469Z,90.40
2019-04-29T06:45:02.253Z,90.90
2019-04-29T06:47:29.814Z,91.60
2019-04-29T06:49:57.429Z,90.90
2019-04-29T06:52:25.012Z,90.00
2019-04-29T06:54:52.592Z,91.10
2019-04-29T06:57:20.141Z,91.20
2019-04-29T06:59:48.661Z,89.60
2019-04-29T07:02:16.565Z,91.00
2019-04-29T07:04:44.158Z,91.70
2019-04-29T07:07:12.089Z,91.30
2019-04-29T07:09:39.669Z,91.00
2019-04-29T07:12:08.125Z,89.10
2019-04-29T07:14:38.524Z,86.90
2019-04-29T07:17:07.242Z,86.20
2019-04-29T07:19:34.961Z,86.40
2019-04-29T07:22:02.542Z,84.00
2019-04-29T07:24:30.120Z,86.30
2019-04-29T07:27:02.575Z,86.70
2019-04-29T07:29:30.843Z,87.10
2019-04-29T07:31:56.829Z,86.20
2019-04-29T07:34:24.376Z,88.50
2019-04-29T07:36:53.261Z,99.90
2019-04-29T07:39:21.188Z,93.10
2019-04-29T07:41:49.615Z,83.10
2019-04-29T07:44:18.401Z,80.30
2019-04-29T07:46:56.894Z,84.10
2019-04-29T07:49:21.104Z,85.00
2019-04-29T07:51:48.689Z,83.30
2019-04-29T07:54:17.704Z,82.80
2019-04-29T07:56:45.424Z,83.30
2019-04-29T07:59:13.258Z,86.50
2019-04-29T08:01:40.825Z,84.60
2019-04-29T08:04:08.361Z,83.30
2019-04-29T08:06:38.105Z,81.10
2019-04-29T08:09:07.854Z,81.80
2019-04-29T08:11:35.684Z,80.50
2019-04-29T08:14:03.241Z,81.60
2019-04-29T08:16:30.805Z,80.50
2019-04-29T08:18:58.353Z,84.40
2019-04-29T08:21:25.929Z,83.10
2019-04-29T08:23:53.456Z,80.80
2019-04-29T08:26:21.249Z,75.90
2019-04-29T08:28:53.055Z,76.90
2019-04-29T08:31:20.981Z,75.40
2019-04-29T08:33:48.541Z,71.70
2019-04-29T08:36:16.256Z,70.90
2019-04-29T08:38:43.868Z,71.00
2019-04-29T08:41:11.415Z,71.00
2019-04-29T08:43:40.607Z,72.80
2019-04-29T08:46:18.814Z,72.80
2019-04-29T08:48:46.352Z,74.40
2019-04-29T08:51:13.901Z,76.00
2019-04-29T08:53:41.438Z,74.70
2019-04-29T08:56:10.270Z,76.20
2019-04-29T08:58:39.472Z,73.80
2019-04-29T09:01:07.184Z,70.50
2019-04-29T09:03:40.575Z,70.00
2019-04-29T09:06:05.957Z,72.20
2019-04-29T09:08:34.540Z,68.90
2019-04-29T09:11:02.489Z,70.70
2019-04-29T09:13:30.025Z,68.60
2019-04-29T09:15:57.598Z,68.90
2019-04-29T09:18:25.128Z,68.00
2019-04-29T09:20:52.760Z,69.20
2019-04-29T09:23:24.652Z,68.10
2019-04-29T09:26:06.059Z,69.80
2019-04-29T09:28:33.589Z,68.20
2019-04-29T09:31:01.218Z,67.60
2019-04-29T09:33:28.751Z,70.60
2019-04-29T09:35:56.621Z,65.80
2019-04-29T09:38:24.188Z,63.50
2019-04-29T09:40:54.415Z,63.00
2019-04-29T09:43:33.292Z,65.80
2019-04-29T09:46:02.476Z,65.10
2019-04-29T09:48:30.043Z,64.40
2019-04-29T09:50:58.052Z,65.20
2019-04-29T09:53:26.175Z,61.60
2019-04-29T09:55:53.711Z,61.50
2019-04-29T09:58:21.569Z,62.20
2019-04-29T10:00:50.733Z,62.90
2019-04-29T10:03:20.086Z,63.40
2019-04-29T10:05:49.296Z,60.90
2019-04-29T10:08:16.836Z,60.70
2019-04-29T10:10:44.657Z,61.50
2019-04-29T10:13:12.200Z,62.50
2019-04-29T10:15:50.776Z,59.60
2019-04-29T10:18:29.777Z,59.40
2019-04-29T10:20:59.869Z,59.90
2019-04-29T10:23:27.416Z,58.60
2019-04-29T10:25:55.228Z,57.70
2019-04-29T10:28:22.769Z,59.10
2019-04-29T10:30:50.360Z,56.50
2019-04-29T10:33:19.391Z,57.30
2019-04-29T10:35:47.172Z,58.00
2019-04-29T10:38:14.727Z,57.00
2019-04-29T10:40:49.886Z,56.60
2019-04-29T10:43:19.084Z,56.10
2019-04-29T10:46:04.677Z,54.80
2019-04-29T10:48:39.718Z,54.30
2019-04-29T10:51:09.031Z,54.70
2019-04-29T10:53:36.588Z,53.60
2019-04-29T10:56:05.695Z,54.40
2019-04-29T10:58:35.551Z,53.70
2019-04-29T11:01:23.116Z,52.50
2019-04-29T11:03:50.672Z,50.20
2019-04-29T11:06:18.257Z,53.40
2019-04-29T11:08:49.877Z,50.90
2019-04-29T11:11:23.212Z,52.90
2019-04-29T11:13:50.312Z,53.60
2019-04-29T11:16:16.311Z,53.50
2019-04-29T11:18:43.880Z,52.30
2019-04-29T11:21:11.557Z,53.50
2019-04-29T11:23:40.759Z,51.60
2019-04-29T11:26:25.641Z,48.60
2019-04-29T11:28:54.773Z,47.80
2019-04-29T11:31:22.374Z,47.90
2019-04-29T11:34:06.807Z,51.90
2019-04-29T11:36:34.960Z,51.00
2019-04-29T11:39:09.093Z,48.40
2019-04-29T11:41:34.714Z,50.20
2019-04-29T11:44:02.284Z,50.20
2019-04-29T11:46:30.417Z,50.20
2019-04-29T11:48:59.644Z,50.50
2019-04-29T11:51:48.543Z,50.80
2019-04-29T11:54:04.039Z,50.00
2019-04-29T11:56:31.573Z,49.40
2019-04-29T11:59:03.794Z,49.70
2019-04-29T12:01:42.969Z,49.80
2019-04-29T12:04:12.701Z,48.40
2019-04-29T12:06:40.243Z,49.00
2019-04-29T12:09:08.060Z,48.70
2019-04-29T12:11:36.267Z,48.40
2019-04-29T12:14:09.273Z,49.70
2019-04-29T12:16:44.261Z,49.20
2019-04-29T12:19:17.069Z,48.50
2019-04-29T12:21:44.277Z,50.10
2019-04-29T12:24:11.999Z,51.60
2019-04-29T12:26:42.859Z,50.90
2019-04-29T12:29:09.089Z,51.00
2019-04-29T12:31:44.800Z,48.50
2019-04-29T12:34:26.660Z,49.20
2019-04-29T12:36:56.487Z,48.80
2019-04-29T12:39:44.969Z,49.50
2019-04-29T12:42:11.780Z,49.40
2019-04-29T12:44:52.992Z,47.90
2019-04-29T12:47:26.591Z,46.60
2019-04-29T12:49:51.440Z,50.00
2019-04-29T12:52:19.065Z,48.70
2019-04-29T12:54:47.712Z,50.20
2019-04-29T12:57:18.984Z,50.20
2019-04-29T12:59:44.936Z,47.40
2019-04-29T13:02:24.524Z,48.40
2019-04-29T13:05:09.642Z,48.10
2019-04-29T13:07:54.334Z,48.20
2019-04-29T13:10:26.452Z,47.20
2019-04-29T13:12:54.035Z,47.20
2019-04-29T13:15:38.284Z,47.40
2019-04-29T13:18:12.638Z,48.60
2019-04-29T13:20:36.728Z,48.60
2019-04-29T13:23:17.000Z,47.80
2019-04-29T13:25:33.551Z,47.80
2019-04-29T13:28:03.946Z,46.20
2019-04-29T13:30:30.419Z,46.30
2019-04-29T13:33:01.178Z,47.00
2019-04-29T13:35:27.460Z,47.90
2019-04-29T13:37:55.043Z,47.90
2019-04-29T13:40:22.798Z,47.80
2019-04-29T13:42:51.046Z,48.00
2019-04-29T13:45:26.616Z,47.20
2019-04-29T13:48:07.124Z,48.20
2019-04-29T13:50:39.850Z,48.80
2019-04-29T13:53:05.064Z,47.40
2019-04-29T13:55:47.672Z,48.10
2019-04-29T13:58:01.902Z,47.10
2019-04-29T14:00:37.306Z,47.40
2019-04-29T14:03:11.616Z,45.50
2019-04-29T14:05:41.469Z,47.30
2019-04-29T14:08:08.233Z,46.70
2019-04-29T14:10:35.778Z,47.80
2019-04-29T14:13:10.878Z,47.20
2019-04-29T14:15:33.938Z,46.80
2019-04-29T14:18:01.973Z,44.10
2019-04-29T14:20:29.513Z,44.40
2019-04-29T14:22:57.065Z,43.90
2019-04-29T14:25:24.600Z,46.20
2019-04-29T14:27:52.167Z,45.90
2019-04-29T14:30:20.887Z,46.00
2019-04-29T14:32:50.556Z,47.90
2019-04-29T14:35:22.117Z,47.60
2019-04-29T14:37:55.269Z,46.80
2019-04-29T14:40:18.924Z,47.00
2019-04-29T14:42:58.267Z,45.70
2019-04-29T14:45:33.737Z,45.40
2019-04-29T14:48:19.525Z,45.30
2019-04-29T14:50:49.493Z,45.50
2019-04-29T14:53:19.505Z,46.00
2019-04-29T14:55:47.300Z,46.70
2019-04-29T14:58:14.849Z,46.30
2019-04-29T15:00:52.893Z,44.60
2019-04-29T15:03:22.159Z,44.40
2019-04-29T15:05:49.790Z,46.10
2019-04-29T15:08:17.381Z,44.90
2019-04-29T15:10:46.552Z,46.10
2019-04-29T15:13:21.183Z,46.50
2019-04-29T15:16:04.255Z,45.70
2019-04-29T15:18:48.761Z,46.90
2019-04-29T15:21:12.353Z,46.30
2019-04-29T15:23:40.011Z,47.80
2019-04-29T15:26:07.561Z,47.50
2019-04-29T15:28:36.742Z,46.40
2019-04-29T15:31:08.176Z,45.30
2019-04-29T15:33:34.723Z,46.50
2019-04-29T15:36:02.800Z,46.30
2019-04-29T15:38:30.355Z,44.80
2019-04-29T15:40:57.890Z,46.30
2019-04-29T15:43:46.053Z,47.90
2019-04-29T15:45:54.704Z,47.80
2019-04-29T15:48:22.251Z,48.20
2019-04-29T15:50:49.788Z,48.90
2019-04-29T15:53:17.335Z,49.70
2019-04-29T15:55:44.877Z,50.00
2019-04-29T15:58:12.676Z,50.40
2019-04-29T16:00:41.053Z,50.00
2019-04-29T16:03:12.722Z,50.00
2019-04-29T16:05:56.106Z,49.50
2019-04-29T16:08:10.716Z,49.00
2019-04-29T16:10:51.759Z,48.80
2019-04-29T16:13:22.523Z,46.90
2019-04-29T16:15:48.445Z,47.20
2019-04-29T16:18:16.006Z,48.30
2019-04-29T16:20:43.541Z,50.60
2019-04-29T16:23:11.088Z,48.00
2019-04-29T16:25:40.772Z,48.80
2019-04-29T16:28:08.584Z,47.30
2019-04-29T16:30:36.117Z,47.70
2019-04-29T16:33:13.015Z,48.30
2019-04-29T16:35:34.918Z,49.50
2019-04-29T16:38:05.690Z,47.70
2019-04-29T16:40:38.809Z,49.30
2019-04-29T16:43:27.476Z,49.10
2019-04-29T16:45:52.945Z,49.30
2019-04-29T16:48:21.001Z,49.40
2019-04-29T16:50:48.531Z,48.70
2019-04-29T16:53:16.081Z,48.10
2019-04-29T16:55:44.420Z,49.00
2019-04-29T16:58:17.970Z,49.30
2019-04-29T17:00:46.651Z,48.40
2019-04-29T17:03:11.138Z,48.00
2019-04-29T17:05:38.676Z,50.20
2019-04-29T17:08:09.512Z,50.80
2019-04-29T17:10:49.684Z,51.90
2019-04-29T17:13:23.340Z,51.40
2019-04-29T17:15:52.036Z,52.00
2019-04-29T17:18:15.797Z,52.70
2019-04-29T17:20:43.404Z,52.50
2019-04-29T17:23:11.001Z,51.90
2019-04-29T17:25:38.912Z,53.00
2019-04-29T17:28:25.690Z,53.40
2019-04-29T17:31:12.468Z,53.50
2019-04-29T17:33:54.292Z,54.40
2019-04-29T17:36:24.021Z,55.20
2019-04-29T17:38:51.564Z,55.00
2019-04-29T17:41:19.099Z,62.70
2019-04-29T17:43:51.002Z,56.70
2019-04-29T17:46:35.212Z,56.00
2019-04-29T17:49:22.128Z,55.90
2019-04-29T17:51:50.040Z,56.60
2019-04-29T17:54:19.359Z,58.50
2019-04-29T17:56:48.704Z,56.70
2019-04-29T17:59:22.724Z,57.30
2019-04-29T18:02:07.965Z,58.10
2019-04-29T18:04:40.392Z,59.70
2019-04-29T18:07:18.410Z,60.40
2019-04-29T18:09:50.644Z,61.20
2019-04-29T18:12:24.934Z,61.80
2019-04-29T18:14:52.712Z,63.90
2019-04-29T18:17:26.724Z,63.70
2019-04-29T18:20:08.549Z,66.50
2019-04-29T18:22:39.036Z,65.70
2019-04-29T18:25:14.192Z,66.90
2019-04-29T18:27:42.804Z,67.40
2019-04-29T18:30:12.184Z,67.90
2019-04-29T18:32:44.886Z,66.80
2019-04-29T18:35:09.273Z,67.10
2019-04-29T18:37:38.433Z,69.00
2019-04-29T18:40:06.157Z,69.70
2019-04-29T18:42:33.699Z,70.50
2019-04-29T18:45:01.239Z,71.00
2019-04-29T18:47:34.959Z,71.20
2019-04-29T18:49:58.167Z,71.40
2019-04-29T18:52:28.423Z,71.80
2019-04-29T18:54:55.411Z,73.00
2019-04-29T18:57:30.085Z,71.50
2019-04-29T18:59:54.859Z,72.70
2019-04-29T19:02:25.712Z,72.80
2019-04-29T19:04:56.853Z,72.30
2019-04-29T19:07:25.429Z,74.20
2019-04-29T19:09:53.450Z,72.40
2019-04-29T19:12:21.177Z,74.10
2019-04-29T19:14:48.868Z,73.10
2019-04-29T19:17:16.425Z,73.90
2019-04-29T19:19:45.218Z,74.80
2019-04-29T19:22:12.933Z,75.40
2019-04-29T19:24:40.561Z,75.60
2019-04-29T19:27:10.044Z,75.70
2019-04-29T19:29:38.893Z,76.60
2019-04-29T19:32:18.886Z,77.10
2019-04-29T19:34:45.936Z,81.60
2019-04-29T19:37:15.373Z,76.60
2019-04-29T19:39:44.829Z,75.70
2019-04-29T19:42:12.613Z,75.40
2019-04-29T19:44:40.389Z,87.20
2019-04-29T19:47:10.988Z,79.90
2019-04-29T19:49:40.219Z,77.10
2019-04-29T19:52:06.662Z,75.60
2019-04-29T19:54:36.053Z,77.50
2019-04-29T19:57:07.321Z,79.00
2019-04-29T19:59:33.961Z,78.40
2019-04-29T20:02:08.518Z,78.40
2019-04-29T20:04:43.187Z,78.80
2019-04-29T20:07:16.135Z,79.60
2019-04-29T20:09:44.351Z,80.10
2019-04-29T20:12:15.046Z,82.40
2019-04-29T20:14:43.362Z,81.30
2019-04-29T20:17:16.574Z,83.00
2019-04-29T20:19:45.988Z,82.60
2019-04-29T20:22:13.191Z,82.70
2019-04-29T20:24:41.512Z,82.30
2019-04-29T20:27:09.365Z,83.00
2019-04-29T20:29:38.625Z,82.90
2019-04-29T20:32:07.943Z,83.50
2019-04-29T20:34:38.925Z,83.00
2019-04-29T20:37:10.712Z,84.50
2019-04-29T20:39:37.225Z,85.40
2019-04-29T20:42:06.338Z,84.70
2019-04-29T20:44:36.563Z,84.60
2019-04-29T20:47:16.562Z,84.50
2019-04-29T20:49:36.034Z,85.50
2019-04-29T20:52:05.513Z,85.60
2019-04-29T20:54:35.470Z,85.00
2019-04-29T20:57:06.097Z,85.30
2019-04-29T20:59:33.048Z,86.50
2019-04-29T21:02:12.076Z,86.90
2019-04-29T21:04:38.591Z,86.80
2019-04-29T21:07:02.740Z,87.60
2019-04-29T21:09:30.367Z,87.70
2019-04-29T21:12:00.222Z,87.00
2019-04-29T21:14:41.650Z,87.20
2019-04-29T21:17:10.940Z,87.10
2019-04-29T21:19:38.861Z,88.30
2019-04-29T21:22:06.586Z,87.70
2019-04-29T21:24:35.283Z,88.40
2019-04-29T21:27:05.285Z,88.30
2019-04-29T21:29:32.313Z,86.90
2019-04-29T21:32:01.860Z,87.50
2019-04-29T21:34:34.603Z,88.60
2019-04-29T21:37:06.657Z,88.10
2019-04-29T21:39:36.327Z,89.20
2019-04-29T21:42:09.709Z,89.50
2019-04-29T21:44:37.223Z,89.50
2019-04-29T21:47:08.082Z,88.90
2019-04-29T21:49:44.873Z,88.80
2019-04-29T21:52:03.307Z,89.30
2019-04-29T21:54:30.852Z,89.50
2019-04-29T21:56:58.404Z,90.10
2019-04-29T21:59:25.944Z,90.40
2019-04-29T22:01:56.047Z,90.30
2019-04-29T22:04:23.432Z,89.80
2019-04-29T22:06:50.991Z,89.40
2019-04-29T22:09:19.703Z,89.80
2019-04-29T22:11:47.252Z,89.90
2019-04-29T22:14:15.589Z,90.10
2019-04-29T22:16:47.616Z,90.60
2019-04-29T22:19:12.829Z,90.80
2019-04-29T22:21:40.401Z,90.60
2019-04-29T22:24:07.936Z,90.30
2019-04-29T22:26:35.480Z,90.10
2019-04-29T22:29:03.611Z,90.40
2019-04-29T22:31:33.680Z,90.50
2019-04-29T22:34:00.876Z,90.50
2019-04-29T22:36:28.416Z,90.20
2019-04-29T22:38:55.958Z,90.50
2019-04-29T22:41:41.192Z,90.20
2019-04-29T22:44:10.628Z,90.00
2019-04-29T22:46:40.040Z,89.90
2019-04-29T22:49:07.441Z,90.30
2019-04-29T22:51:35.552Z,90.30
2019-04-29T22:54:03.171Z,90.40
2019-04-29T22:56:31.003Z,90.00
2019-04-29T22:58:58.539Z,90.20
2019-04-29T23:01:26.420Z,90.40
2019-04-29T23:03:55.417Z,91.00
2019-04-29T23:06:23.081Z,91.10
2019-04-29T23:08:50.616Z,90.80
2019-04-29T23:11:18.152Z,91.30
2019-04-29T23:13:47.632Z,91.40
2019-04-29T23:16:15.040Z,91.20
2019-04-29T23:18:44.063Z,91.10
2019-04-29T23:21:36.062Z,91.30
2019-04-29T23:24:19.180Z,90.60
2019-04-29T23:26:46.725Z,91.40
2019-04-29T23:29:15.603Z,91.60
2019-04-29T23:31:43.272Z,91.20
2019-04-29T23:34:10.815Z,91.40
2019-04-29T23:36:38.460Z,91.30
2019-04-29T23:39:06.008Z,91.70
2019-04-29T23:41:36.550Z,91.50
2019-04-29T23:44:05.272Z,91.60
2019-04-29T23:46:34.224Z,91.50
2019-04-29T23:49:03.107Z,91.00
2019-04-29T23:51:34.442Z,91.20
2019-04-29T23:54:03.605Z,91.20
2019-04-29T23:56:48.262Z,91.20
2019-04-29T23:59:20.257Z,91.90
